This is the latest recevied weather packets stored in our database for station/object OE-11369. If no packets are shown the sender has not sent any weather packets the latest 10 day(s).
| Time | Temp. | Humidity | Pressure | Rain* | Wind** | Luminosity | Snow |
|---|---|---|---|---|---|---|---|
| 1787886674 | 16.67° C | 85% | 1013.3 hPa | - | - | - | - |
| 1787886301 | 17.22° C | 85% | 1013.1 hPa | - | - | - | - |
| 1787885702 | 17.22° C | 84% | 1013.2 hPa | - | - | - | - |
| 1787884875 | 17.22° C | 83% | 1012.9 hPa | - | - | - | - |
| 1787884502 | 17.22° C | 84% | 1013.2 hPa | - | - | - | - |
| 1787883902 | 17.22° C | 84% | 1013 hPa | - | - | - | - |
| 1787883075 | 17.22° C | 84% | 1013.1 hPa | - | - | - | - |
| 1787882702 | 17.22° C | 83% | 1013 hPa | - | - | - | - |
| 1787882102 | 17.22° C | 84% | 1013.1 hPa | - | - | - | - |
| 1787881275 | 17.22° C | 84% | 1013 hPa | - | - | - | - |
| 1787880902 | 17.22° C | 84% | 1013 hPa | - | - | - | - |
| 1787880302 | 17.78° C | 82% | 1012.8 hPa | - | - | - | - |
| 1787879474 | 17.22° C | 85% | 1013 hPa | - | - | - | - |
| 1787879101 | 17.22° C | 84% | 1012.9 hPa | - | - | - | - |
| 1787878502 | 17.78° C | 82% | 1013 hPa | - | - | - | - |
| 1787877674 | 17.78° C | 83% | 1013.1 hPa | - | - | - | - |
| 1787877302 | 17.78° C | 83% | 1013 hPa | - | - | - | - |
| 1787876702 | 17.78° C | 84% | 1013 hPa | - | - | - | - |
| 1787875874 | 17.78° C | 83% | 1012.9 hPa | - | - | - | - |
| 1787875501 | 17.78° C | 85% | 1013.1 hPa | - | - | - | - |
| 1787874902 | 17.78° C | 84% | 1012.9 hPa | - | - | - | - |
| 1787874074 | 17.78° C | 84% | 1013.1 hPa | - | - | - | - |
| 1787873702 | 17.78° C | 85% | 1013.2 hPa | - | - | - | - |
| 1787873101 | 17.78° C | 84% | 1013.2 hPa | - | - | - | - |
| 1787872502 | 18.33° C | 82% | 1013.3 hPa | - | - | - | - |
* Rain since midnight (hover to see other rain measurements)
** Current wind speed in m/s (hover to see current wind gust speed)